Time;durP1;ratioP1;P1;durP2;ratioP2;P2;SDS_P1;SDS_P2;PMS_P1;PMS_P2;Temp;Humidity;BMP_temperature;BMP_pressure;BME280_temperature;BME280_humidity;BME280_pressure;Samples;Min_cycle;Max_cycle;Signal;HPM_P1;HPM_P2
2023/04/06 00:03:08;;;;;;;21.63;9.70;;;;;;;;;;10377980;28;20191;-80
2023/04/06 00:08:30;;;;;;;18.27;9.20;;;;;;;;;;10398205;28;20193;-78
2023/04/06 00:13:51;;;;;;;17.47;9.27;;;;;;;;;;10396439;28;20535;-78
2023/04/06 00:19:13;;;;;;;18.93;9.83;;;;;;;;;;10397687;28;20514;-78
2023/04/06 00:24:35;;;;;;;18.67;10.27;;;;;;;;;;10390163;28;20207;-78
2023/04/06 00:29:56;;;;;;;20.37;9.80;;;0.70;99.90;;;;;;10410460;28;20521;-77
2023/04/06 00:35:18;;;;;;;14.97;8.73;;;0.80;99.90;;;;;;10406552;28;20245;-77
2023/04/06 00:40:40;;;;;;;21.53;11.13;;;;;;;;;;10383405;28;20493;-77
2023/04/06 00:46:01;;;;;;;19.73;10.47;;;;;;;;;;10383096;28;20241;-78
2023/04/06 00:51:23;;;;;;;25.17;12.00;;;;;;;;;;10347576;28;20219;-79
2023/04/06 00:56:44;;;;;;;23.10;11.97;;;;;;;;;;10372321;28;20210;-79
2023/04/06 01:02:06;;;;;;;27.43;13.67;;;;;;;;;;10360277;28;20190;-79
2023/04/06 01:07:33;;;;;;;20.63;11.73;;;;;;;;;;10397137;28;20282;-79
2023/04/06 01:13:01;;;;;;;22.10;11.10;;;;;;;;;;10368352;28;20291;-78
2023/04/06 01:18:46;;;;;;;28.67;13.17;;;;;;;;;;10376719;28;20396;-79
2023/04/06 01:24:12;;;;;;;27.17;13.67;;;;;;;;;;10409779;28;20222;-77
2023/04/06 01:29:57;;;;;;;32.57;15.37;;;;;;;;;;10380468;28;20205;-80
2023/04/06 01:35:47;;;;;;;28.40;14.47;;;;;;;;;;10383696;28;20229;-80
2023/04/06 01:41:12;;;;;;;28.13;14.40;;;;;;;;;;10380342;28;20194;-80
2023/04/06 01:46:46;;;;;;;23.50;12.73;;;;;;;;;;10370675;28;20234;-77
2023/04/06 01:52:12;;;;;;;27.97;13.10;;;;;;;;;;10356549;28;20226;-78
2023/04/06 01:57:38;;;;;;;28.40;13.83;;;;;;;;;;10357683;28;20201;-80
2023/04/06 02:03:08;;;;;;;27.57;13.53;;;;;;;;;;10400265;28;20420;-80
2023/04/06 02:08:29;;;;;;;28.47;14.17;;;1.20;99.90;;;;;;10395576;28;20197;-78
2023/04/06 02:13:51;;;;;;;24.83;12.60;;;;;;;;;;10376748;28;20415;-77
2023/04/06 02:19:12;;;;;;;28.37;14.73;;;0.20;99.90;;;;;;10419388;28;20211;-77
2023/04/06 02:24:34;;;;;;;27.43;15.20;;;0.10;99.90;;;;;;10451629;28;20503;-78
2023/04/06 02:29:55;;;;;;;43.80;19.47;;;-0.20;99.90;;;;;;10413229;28;20203;-78
2023/04/06 02:35:16;;;;;;;32.67;18.43;;;-0.20;99.90;;;;;;10394183;28;20284;-77
2023/04/06 02:40:40;;;;;;;30.13;16.70;;;-0.20;99.90;;;;;;10347615;28;20197;-79
2023/04/06 02:46:12;;;;;;;31.17;17.67;;;-0.20;99.90;;;;;;10360413;28;20234;-79
2023/04/06 02:51:33;;;;;;;31.83;16.77;;;-0.20;99.90;;;;;;10369528;28;20201;-79
2023/04/06 02:57:14;;;;;;;33.07;16.13;;;-0.20;99.90;;;;;;10383190;28;20202;-79
2023/04/06 03:02:38;;;;;;;37.40;18.90;;;-0.20;99.90;;;;;;10401365;28;20365;-79
2023/04/06 03:08:03;;;;;;;31.67;16.30;;;-0.30;99.90;;;;;;10401081;28;20238;-79
2023/04/06 03:13:44;;;;;;;33.20;17.37;;;-0.40;99.90;;;;;;10393959;28;20283;-79
2023/04/06 03:19:06;;;;;;;39.10;19.77;;;;;;;;;;10400608;28;20194;-79
2023/04/06 03:24:29;;;;;;;52.77;24.83;;;-0.30;99.90;;;;;;10386487;28;20208;-79
2023/04/06 03:29:50;;;;;;;54.10;28.10;;;-0.30;99.90;;;;;;10363835;28;20201;-79
2023/04/06 03:35:19;;;;;;;56.97;29.60;;;-0.40;99.90;;;;;;10373195;28;20241;-79
2023/04/06 03:40:40;;;;;;;50.63;27.80;;;-0.30;99.90;;;;;;10362238;28;20206;-79
2023/04/06 03:46:02;;;;;;;50.40;27.73;;;-0.30;99.90;;;;;;10344819;28;20234;-80
2023/04/06 03:51:23;;;;;;;49.13;27.27;;;-0.40;99.90;;;;;;10372491;28;20209;-79
2023/04/06 03:56:44;;;;;;;39.17;25.30;;;-0.40;99.90;;;;;;10378643;28;20279;-79
2023/04/06 04:02:05;;;;;;;45.43;25.83;;;-0.40;99.90;;;;;;10372394;28;20213;-79
2023/04/06 04:07:26;;;;;;;46.77;27.03;;;-0.50;99.90;;;;;;10390320;28;20451;-78
2023/04/06 04:12:48;;;;;;;51.00;28.00;;;-0.50;99.90;;;;;;10397357;28;20222;-78
2023/04/06 04:18:10;;;;;;;40.77;22.73;;;-0.50;99.90;;;;;;10411925;28;20499;-78
2023/04/06 04:23:33;;;;;;;43.80;20.80;;;-0.50;99.90;;;;;;10397379;28;20201;-78
2023/04/06 04:28:55;;;;;;;41.00;21.13;;;-0.50;99.90;;;;;;10356781;28;20216;-78
2023/04/06 04:34:19;;;;;;;48.07;22.67;;;-0.50;99.90;;;;;;10356814;28;20412;-78
2023/04/06 04:39:41;;;;;;;48.00;20.10;;;-0.70;99.90;;;;;;10374109;28;20202;-78
2023/04/06 04:45:02;;;;;;;33.87;17.47;;;-0.70;99.90;;;;;;10370349;28;20294;-78
2023/04/06 04:50:31;;;;;;;37.23;18.23;;;-0.70;99.90;;;;;;10370231;28;20194;-79
2023/04/06 04:55:52;;;;;;;30.77;17.17;;;-0.60;99.90;;;;;;10345475;28;20239;-78
2023/04/06 05:01:14;;;;;;;31.60;16.67;;;-0.60;99.90;;;;;;10356969;28;20573;-79
2023/04/06 05:06:37;;;;;;;29.87;17.23;;;-0.40;99.90;;;;;;10368003;28;20462;-79
2023/04/06 05:12:00;;;;;;;31.00;18.23;;;-0.30;99.90;;;;;;10370054;28;20284;-78
2023/04/06 05:17:25;;;;;;;34.00;20.07;;;-0.10;99.90;;;;;;10395689;28;20200;-79
2023/04/06 05:22:46;;;;;;;27.90;16.60;;;0.10;99.90;;;;;;10393880;28;20189;-78
2023/04/06 05:28:08;;;;;;;29.97;17.93;;;0.20;99.90;;;;;;10354991;28;20453;-78
2023/04/06 05:33:32;;;;;;;36.10;19.63;;;0.20;99.90;;;;;;10371928;28;20415;-77
2023/04/06 05:39:00;;;;;;;47.10;24.67;;;0.30;99.90;;;;;;10445107;28;20207;-79
2023/04/06 05:44:51;;;;;;;52.07;26.03;;;0.50;99.90;;;;;;10435055;28;20241;-77
2023/04/06 05:50:16;;;;;;;54.77;25.57;;;0.70;99.90;;;;;;10376007;28;20206;-78
2023/04/06 05:55:38;;;;;;;43.47;22.67;;;0.80;99.90;;;;;;10367671;28;20280;-76
2023/04/06 06:01:05;;;;;;;41.00;22.37;;;1.00;99.90;;;;;;10353780;28;20217;-79
2023/04/06 06:06:33;;;;;;;47.27;21.50;;;1.20;99.90;;;;;;10379479;28;20198;-78
2023/04/06 06:12:07;;;;;;;40.50;21.17;;;1.40;99.90;;;;;;10394053;28;20212;-80
2023/04/06 06:17:29;;;;;;;37.40;19.87;;;1.70;99.90;;;;;;10383000;28;20512;-79
2023/04/06 06:22:50;;;;;;;57.90;26.30;;;1.90;99.90;;;;;;10367272;28;20219;-78
2023/04/06 06:28:14;;;;;;;60.80;25.13;;;2.10;99.90;;;;;;10369690;28;20209;-78
2023/04/06 06:33:35;;;;;;;68.83;32.20;;;2.40;99.90;;;;;;10378527;28;20295;-79
2023/04/06 06:38:58;;;;;;;47.73;25.87;;;;;;;;;;10362281;28;20197;-79
2023/04/06 06:44:20;;;;;;;47.27;25.40;;;;;;;;;;10362726;28;20241;-77
2023/04/06 06:49:41;;;;;;;26.27;13.60;;;6.60;71.00;;;;;;10386189;28;20227;-78
2023/04/06 06:55:03;;;;;;;28.23;12.90;;;;;;;;;;10356053;28;20533;-78
2023/04/06 07:00:24;;;;;;;27.70;13.33;;;;;;;;;;10366868;28;20193;-77
2023/04/06 07:05:52;;;;;;;18.37;10.73;;;9.10;26.60;;;;;;10369248;28;20244;-79
2023/04/06 07:11:15;;;;;;;20.87;11.90;;;9.50;22.20;;;;;;10400331;28;20204;-77
2023/04/06 07:16:37;;;;;;;32.07;12.37;;;;;;;;;;10413299;28;20528;-77
2023/04/06 07:21:59;;;;;;;21.67;9.77;;;10.70;17.40;;;;;;10385933;28;20588;-79
2023/04/06 07:27:19;;;;;;;20.57;8.90;;;11.00;16.20;;;;;;10401139;28;20202;-78
2023/04/06 07:32:41;;;;;;;16.53;7.93;;;11.10;14.90;;;;;;10404966;28;20227;-78
2023/04/06 07:38:03;;;;;;;24.57;9.10;;;11.00;13.30;;;;;;10336723;28;20752;-82
2023/04/06 07:43:25;;;;;;;16.17;7.20;;;11.50;12.50;;;;;;10391815;28;20260;-81
2023/04/06 07:48:46;;;;;;;6.57;4.13;;;11.90;9.40;;;;;;10344130;28;20231;-83
2023/04/06 07:54:08;;;;;;;13.43;6.47;;;12.40;7.80;;;;;;10385394;28;20230;-83
2023/04/06 07:59:29;;;;;;;14.55;5.47;;;12.60;6.40;;;;;;10380415;28;20250;-82
2023/04/06 08:04:50;;;;;;;10.23;6.55;;;12.40;6.10;;;;;;10336926;28;20222;-81
2023/04/06 08:10:12;;;;;;;10.87;5.57;;;12.20;6.90;;;;;;10349420;28;20196;-83
2023/04/06 08:15:33;;;;;;;20.27;8.33;;;11.70;6.30;;;;;;10392692;28;20239;-84
2023/04/06 08:20:55;;;;;;;14.50;8.47;;;11.80;5.90;;;;;;10419338;28;20218;-83
2023/04/06 08:26:16;;;;;;;13.10;7.73;;;11.30;7.50;;;;;;10434653;28;20195;-79
2023/04/06 08:31:37;;;;;;;12.73;5.67;;;11.10;7.50;;;;;;10423879;28;20218;-83
2023/04/06 08:36:59;;;;;;;7.23;4.30;;;12.10;6.30;;;;;;10383476;28;20232;-85
2023/04/06 08:42:25;;;;;;;6.70;4.88;;;13.00;3.70;;;;;;10427440;28;20228;-86
2023/04/06 08:47:54;;;;;;;15.10;7.87;;;13.60;1.90;;;;;;10407833;28;20222;-84
2023/04/06 08:53:16;;;;;;;16.33;9.88;;;12.30;2.80;;;;;;10377389;28;20433;-84
2023/04/06 08:58:40;;;;;;;10.18;5.50;;;12.70;3.70;;;;;;10391743;28;20216;-86
2023/04/06 09:04:01;;;;;;;7.90;4.27;;;12.10;3.70;;;;;;10391431;28;20241;-82
2023/04/06 09:09:24;;;;;;;6.97;4.10;;;10.80;5.00;;;;;;10391370;28;20229;-82
2023/04/06 09:14:46;;;;;;;6.37;4.23;;;9.70;6.30;;;;;;10377895;28;20226;-81
2023/04/06 09:20:08;;;;;;;9.43;5.23;;;8.50;7.60;;;;;;10380017;28;20234;-82
2023/04/06 09:25:31;;;;;;;6.87;4.00;;;8.30;8.70;;;;;;10355314;28;20286;-91
2023/04/06 09:30:52;;;;;;;5.60;4.00;;;8.20;9.10;;;;;;10375140;28;20219;-82
2023/04/06 09:36:15;;;;;;;9.50;5.10;;;8.10;9.50;;;;;;10396810;28;20376;-83
2023/04/06 09:41:36;;;;;;;8.33;4.60;;;9.90;7.60;;;;;;10378225;28;20727;-82
2023/04/06 09:46:57;;;;;;;12.33;4.83;;;11.70;4.80;;;;;;10395947;28;20245;-83
2023/04/06 09:52:23;;;;;;;6.73;4.43;;;13.50;3.00;;;;;;10383294;28;20194;-86
2023/04/06 09:58:04;;;;;;;8.93;4.78;;;14.50;1.00;;;;;;10400182;28;20213;-84
2023/04/06 10:03:47;;;;;;;7.82;4.35;;;14.80;1.00;;;;;;10371363;28;20236;-88
2023/04/06 10:09:08;;;;;;;15.60;6.87;;;13.60;1.10;;;;;;10351863;28;20227;-84
2023/04/06 10:14:31;;;;;;;8.03;4.93;;;12.10;2.60;;;;;;10388371;28;20233;-81
2023/04/06 10:20:16;;;;;;;11.40;4.40;;;11.50;4.00;;;;;;10374990;28;20201;-82
2023/04/06 10:25:37;;;;;;;5.43;4.10;;;11.90;3.40;;;;;;10388633;28;20222;-82
2023/04/06 10:31:00;;;;;;;15.13;5.60;;;11.80;3.20;;;;;;10403560;28;20194;-91
2023/04/06 10:36:27;;;;;;;10.30;4.10;;;11.70;3.60;;;;;;10372583;28;20556;-84
2023/04/06 10:41:48;;;;;;;8.90;4.37;;;13.00;3.30;;;;;;10377938;28;20204;-81
2023/04/06 10:47:19;;;;;;;12.63;5.70;;;14.20;1.00;;;;;;10388198;28;20425;-79
2023/04/06 10:52:41;;;;;;;9.90;5.07;;;13.20;1.50;;;;;;10403660;28;20215;-80
2023/04/06 10:58:05;;;;;;;13.40;6.83;;;12.30;2.70;;;;;;10399655;28;20226;-83
2023/04/06 11:03:27;;;;;;;6.77;4.50;;;11.60;3.70;;;;;;10387236;28;20202;-84
2023/04/06 11:08:49;;;;;;;9.33;4.70;;;11.20;4.40;;;;;;10378512;28;20470;-80
2023/04/06 11:14:10;;;;;;;7.27;4.43;;;11.60;4.20;;;;;;10360425;28;20257;-81
2023/04/06 11:19:31;;;;;;;11.40;5.07;;;12.60;3.70;;;;;;10414236;28;20357;-81
2023/04/06 11:25:05;;;;;;;9.10;4.80;;;12.70;2.70;;;;;;10399524;28;20221;-80
2023/04/06 11:30:27;;;;;;;10.40;6.17;;;12.20;3.10;;;;;;10393256;28;20262;-81
2023/04/06 11:35:48;;;;;;;10.57;4.80;;;11.30;4.00;;;;;;10427387;28;20412;-83
2023/04/06 11:41:10;;;;;;;5.63;3.90;;;11.40;4.70;;;;;;10394607;28;20505;-82
2023/04/06 11:46:31;;;;;;;8.37;4.40;;;11.50;4.20;;;;;;10369098;28;20231;-83
2023/04/06 11:51:52;;;;;;;5.87;3.90;;;12.00;3.30;;;;;;10391495;28;20253;-82
2023/04/06 11:57:14;;;;;;;8.20;5.13;;;12.30;2.90;;;;;;10420248;28;20231;-82
2023/04/06 12:02:39;;;;;;;11.80;6.20;;;12.70;2.80;;;;;;10423121;28;20212;-79
2023/04/06 12:08:01;;;;;;;8.10;5.27;;;13.00;3.00;;;;;;10380179;28;20216;-81
2023/04/06 12:13:22;;;;;;;11.68;4.65;;;13.40;2.80;;;;;;10402607;28;20255;-79
2023/04/06 12:18:43;;;;;;;5.87;3.93;;;12.70;2.80;;;;;;10396718;28;20765;-79
2023/04/06 12:24:05;;;;;;;8.97;4.90;;;12.10;3.50;;;;;;10384458;28;20208;-79
2023/04/06 12:29:26;;;;;;;8.87;4.83;;;12.40;3.50;;;;;;10385725;28;20211;-78
2023/04/06 12:34:47;;;;;;;8.80;4.73;;;12.90;3.40;;;;;;10353688;28;20292;-79
2023/04/06 12:40:10;;;;;;;12.37;5.27;;;13.50;2.70;;;;;;10399680;28;20387;-78
2023/04/06 12:45:32;;;;;;;7.13;4.33;;;13.50;2.80;;;;;;10396593;28;20613;-79
2023/04/06 12:51:01;;;;;;;13.43;4.93;;;13.30;2.80;;;;;;10420779;28;20254;-79
2023/04/06 12:56:22;;;;;;;6.97;4.13;;;12.90;3.20;;;;;;10390380;28;20310;-78
2023/04/06 13:01:44;;;;;;;7.93;3.80;;;12.60;3.50;;;;;;10393608;28;20206;-79
2023/04/06 13:07:06;;;;;;;8.20;4.00;;;12.50;3.60;;;;;;10430972;28;20233;-85
2023/04/06 13:12:32;;;;;;;6.73;2.97;;;12.40;3.30;;;;;;10391263;28;20279;-83
2023/04/06 13:18:04;;;;;;;11.10;4.10;;;12.00;3.40;;;;;;10353770;28;20244;-80
2023/04/06 13:23:25;;;;;;;6.23;3.47;;;12.00;4.10;;;;;;10336121;28;20540;-82
2023/04/06 13:28:47;;;;;;;7.90;4.53;;;11.70;4.30;;;;;;10352834;28;20204;-81
2023/04/06 13:34:08;;;;;;;9.50;6.10;;;11.80;4.30;;;;;;10357665;28;20232;-79
2023/04/06 13:39:31;;;;;;;6.53;3.37;;;11.90;4.40;;;;;;10374049;28;20198;-79
2023/04/06 13:44:53;;;;;;;37.73;16.23;;;11.70;5.60;;;;;;10399359;28;20234;-78
2023/04/06 13:50:14;;;;;;;19.70;9.33;;;11.70;5.80;;;;;;10430891;28;20204;-79
2023/04/06 13:55:35;;;;;;;21.63;9.60;;;11.20;6.10;;;;;;10432386;28;20239;-76
2023/04/06 14:01:09;;;;;;;8.40;4.90;;;10.90;6.40;;;;;;10411691;28;20228;-79
2023/04/06 14:06:30;;;;;;;12.80;6.43;;;10.50;6.40;;;;;;10360889;28;20241;-82
2023/04/06 14:11:52;;;;;;;13.27;7.00;;;10.40;6.70;;;;;;10382763;28;20198;-82
2023/04/06 14:17:14;;;;;;;6.73;3.27;;;10.40;6.70;;;;;;10390347;28;20229;-86
2023/04/06 14:22:36;;;;;;;7.33;3.73;;;10.10;6.80;;;;;;10376420;28;20481;-81
2023/04/06 14:27:57;;;;;;;13.73;7.17;;;9.70;6.70;;;;;;10391862;28;20213;-86
2023/04/06 14:33:18;;;;;;;10.20;4.37;;;9.50;6.70;;;;;;10383931;28;20212;-93
2023/04/06 14:38:40;;;;;;;7.17;3.40;;;9.50;6.60;;;;;;10374258;28;20223;-79
2023/04/06 14:44:02;;;;;;;4.63;3.03;;;9.50;6.70;;;;;;10386822;28;20251;-78
2023/04/06 14:49:24;;;;;;;10.93;5.00;;;9.50;7.00;;;;;;10329889;28;20476;-83
2023/04/06 14:54:45;;;;;;;5.67;2.83;;;9.60;6.80;;;;;;10342000;28;20554;-80
2023/04/06 15:00:09;;;;;;;4.90;3.40;;;9.40;6.50;;;;;;10366969;28;20215;-79
2023/04/06 15:05:31;;;;;;;12.93;5.63;;;9.40;7.00;;;;;;10387879;28;20196;-82
2023/04/06 15:10:54;;;;;;;9.13;3.80;;;9.20;6.90;;;;;;10399614;28;20258;-77
2023/04/06 15:16:16;;;;;;;27.77;11.90;;;8.90;7.50;;;;;;10397063;28;20310;-78
2023/04/06 15:21:37;;;;;;;23.83;10.60;;;8.90;7.90;;;;;;10401750;28;20191;-80
2023/04/06 15:26:58;;;;;;;10.80;4.13;;;9.00;7.80;;;;;;10398075;28;20252;-78
2023/04/06 15:32:20;;;;;;;6.90;3.77;;;8.90;8.20;;;;;;10407668;28;20203;-79
2023/04/06 15:37:41;;;;;;;20.87;7.40;;;9.00;8.50;;;;;;10397247;28;20230;-77
2023/04/06 15:43:02;;;;;;;12.97;5.27;;;8.90;9.10;;;;;;10399368;28;20242;-79
2023/04/06 15:48:24;;;;;;;17.17;6.33;;;8.60;10.10;;;;;;10397553;28;20204;-79
2023/04/06 15:53:45;;;;;;;18.27;6.30;;;8.50;10.70;;;;;;10399313;28;20208;-78
2023/04/06 15:59:07;;;;;;;15.90;5.33;;;8.40;11.20;;;;;;10400686;28;20235;-85
2023/04/06 16:04:29;;;;;;;12.47;4.83;;;8.30;11.30;;;;;;10378162;28;20207;-77
2023/04/06 16:10:01;;;;;;;9.17;3.87;;;8.10;11.90;;;;;;10370837;28;20207;-78
2023/04/06 16:15:23;;;;;;;5.47;3.07;;;7.80;12.40;;;;;;10371528;28;20483;-78
2023/04/06 16:20:45;;;;;;;12.90;4.43;;;7.60;13.00;;;;;;10371614;28;20226;-77
2023/04/06 16:26:14;;;;;;;14.00;5.97;;;7.30;13.70;;;;;;10373866;28;20440;-78
2023/04/06 16:31:35;;;;;;;11.60;6.10;;;7.30;14.50;;;;;;10369089;28;20273;-77
2023/04/06 16:36:56;;;;;;;9.27;4.67;;;7.20;15.10;;;;;;10356943;28;20294;-79
2023/04/06 16:42:19;;;;;;;7.87;4.27;;;6.80;16.00;;;;;;10390153;28;20408;-78
2023/04/06 16:47:40;;;;;;;15.87;6.60;;;6.60;17.40;;;;;;10398745;28;20379;-79
2023/04/06 16:53:01;;;;;;;9.83;4.87;;;6.60;18.10;;;;;;10372936;28;20232;-81
2023/04/06 16:58:23;;;;;;;7.57;4.23;;;6.40;18.90;;;;;;10370075;28;20264;-78
2023/04/06 17:03:46;;;;;;;10.23;5.50;;;6.20;20.20;;;;;;10373513;28;20491;-77
2023/04/06 17:09:07;;;;;;;10.80;4.27;;;6.10;22.80;;;;;;10410329;28;20192;-78
2023/04/06 17:14:28;;;;;;;11.07;5.17;;;6.00;24.60;;;;;;10382372;28;20296;-79
2023/04/06 17:19:49;;;;;;;11.53;5.67;;;5.80;1.00;;;;;;10365852;28;20522;-80
2023/04/06 17:25:10;;;;;;;9.23;5.37;;;5.80;1.00;;;;;;10371680;28;20198;-77
2023/04/06 17:30:33;;;;;;;15.23;7.20;;;5.80;1.00;;;;;;10355012;28;20218;-81
2023/04/06 17:35:54;;;;;;;7.93;4.97;;;5.80;1.00;;;;;;10404196;28;20228;-79
2023/04/06 17:41:15;;;;;;;13.80;8.23;;;5.60;1.00;;;;;;10395261;28;20364;-78
2023/04/06 17:46:36;;;;;;;13.27;5.50;;;5.50;1.00;;;;;;10354276;28;20563;-78
2023/04/06 17:51:57;;;;;;;31.33;14.27;;;5.50;21.40;;;;;;10377220;28;20204;-79
2023/04/06 17:57:20;;;;;;;27.00;15.17;;;5.50;1.00;;;;;;10399636;28;20254;-83
2023/04/06 18:02:41;;;;;;;11.53;6.10;;;5.40;52.30;;;;;;10388891;28;20216;-83
2023/04/06 18:08:02;;;;;;;9.90;4.60;;;5.40;37.30;;;;;;10375406;28;20272;-85
2023/04/06 18:13:23;;;;;;;6.70;3.97;;;5.20;99.90;;;;;;10355185;28;20205;-79
2023/04/06 18:18:44;;;;;;;10.67;4.70;;;5.20;99.90;;;;;;10390028;28;20254;-76
2023/04/06 18:24:06;;;;;;;8.03;4.10;;;5.10;99.90;;;;;;10395538;28;20197;-77
2023/04/06 18:29:27;;;;;;;13.93;4.70;;;5.00;99.90;;;;;;10403691;28;20200;-76
2023/04/06 18:34:48;;;;;;;9.57;3.73;;;5.00;1.00;;;;;;10402528;28;20251;-78
2023/04/06 18:40:30;;;;;;;5.80;3.73;;;5.00;1.00;;;;;;10378296;28;20199;-79
2023/04/06 18:45:51;;;;;;;6.77;3.60;;;4.90;99.90;;;;;;10382370;28;20261;-77
2023/04/06 18:51:12;;;;;;;10.43;4.60;;;4.90;99.90;;;;;;10370735;28;20216;-81
2023/04/06 18:56:33;;;;;;;9.93;4.97;;;4.90;44.70;;;;;;10387293;28;20221;-78
2023/04/06 19:01:55;;;;;;;8.67;5.13;;;4.90;95.50;;;;;;10377166;28;20232;-78
2023/04/06 19:07:16;;;;;;;7.50;4.23;;;4.80;97.00;;;;;;10386433;28;20213;-78
2023/04/06 19:12:37;;;;;;;10.97;5.50;;;4.80;97.50;;;;;;10400732;28;20245;-78
2023/04/06 19:17:59;;;;;;;9.57;5.40;;;4.80;98.00;;;;;;10400947;28;20244;-78
2023/04/06 19:23:20;;;;;;;10.10;5.37;;;4.80;97.70;;;;;;10422581;28;20214;-79
2023/04/06 19:28:42;;;;;;;7.63;4.47;;;4.80;98.90;;;;;;10454315;28;20561;-82
2023/04/06 19:34:03;;;;;;;8.70;4.67;;;4.80;99.20;;;;;;10432352;28;20278;-79
2023/04/06 19:39:25;;;;;;;9.37;5.37;;;4.80;99.00;;;;;;10398433;28;20211;-80
2023/04/06 19:44:47;;;;;;;9.63;5.30;;;4.90;98.10;;;;;;10400854;28;20231;-81
2023/04/06 19:50:10;;;;;;;9.37;4.60;;;4.90;98.40;;;;;;10400042;28;20199;-80
2023/04/06 19:55:31;;;;;;;8.63;5.03;;;4.80;99.20;;;;;;10409681;28;20277;-78
2023/04/06 20:00:52;;;;;;;8.70;5.33;;;4.60;99.50;;;;;;10359820;28;20269;-80
2023/04/06 20:06:13;;;;;;;8.20;5.07;;;4.70;99.90;;;;;;10358412;28;20275;-79
2023/04/06 20:11:35;;;;;;;11.37;6.07;;;4.60;99.90;;;;;;10375673;28;20304;-81
2023/04/06 20:16:56;;;;;;;11.83;6.03;;;4.50;99.90;;;;;;10399729;28;20247;-83
2023/04/06 20:22:17;;;;;;;9.23;5.50;;;4.40;99.90;;;;;;10399489;28;20208;-79
2023/04/06 20:27:38;;;;;;;10.00;5.77;;;4.30;99.90;;;;;;10385887;28;20219;-79
2023/04/06 20:33:00;;;;;;;12.57;6.13;;;4.30;99.90;;;;;;10398336;28;20199;-79
2023/04/06 20:38:21;;;;;;;12.33;6.97;;;4.40;99.90;;;;;;10382181;28;20243;-77
2023/04/06 20:43:48;;;;;;;13.33;7.00;;;4.50;99.90;;;;;;10380672;28;20236;-75
2023/04/06 20:49:09;;;;;;;11.40;6.87;;;4.40;99.90;;;;;;10397011;28;20200;-81
2023/04/06 20:54:30;;;;;;;11.77;6.03;;;4.60;99.90;;;;;;10396973;28;20212;-80
2023/04/06 20:59:52;;;;;;;9.63;5.67;;;4.50;99.90;;;;;;10395766;28;20249;-77
2023/04/06 21:05:13;;;;;;;9.07;4.83;;;4.60;99.90;;;;;;10399214;28;20185;-80
2023/04/06 21:10:34;;;;;;;10.90;5.33;;;4.40;99.90;;;;;;10396832;28;20215;-83
2023/04/06 21:15:56;;;;;;;8.13;5.10;;;4.40;99.90;;;;;;10369049;28;20232;-79
2023/04/06 21:21:17;;;;;;;9.33;5.13;;;4.20;99.90;;;;;;10355633;28;20235;-80
2023/04/06 21:26:38;;;;;;;6.97;4.50;;;4.10;99.90;;;;;;10356346;28;20220;-78
2023/04/06 21:31:59;;;;;;;9.17;5.23;;;4.20;99.90;;;;;;10371071;28;20456;-78
2023/04/06 21:37:20;;;;;;;6.30;4.40;;;4.00;99.90;;;;;;10370904;28;20229;-79
2023/04/06 21:42:41;;;;;;;9.57;4.43;;;4.10;99.90;;;;;;10368590;28;20274;-85
2023/04/06 21:48:03;;;;;;;9.20;4.60;;;4.20;99.90;;;;;;10354840;28;20212;-85
2023/04/06 21:53:24;;;;;;;10.77;5.20;;;4.20;99.90;;;;;;10396780;28;20185;-79
2023/04/06 21:58:45;;;;;;;10.53;4.83;;;4.10;99.90;;;;;;10408447;28;20559;-79
2023/04/06 22:04:06;;;;;;;9.90;5.33;;;4.20;99.90;;;;;;10354368;28;20193;-78
2023/04/06 22:09:27;;;;;;;8.30;5.50;;;4.20;99.90;;;;;;10353941;28;20433;-77
2023/04/06 22:14:49;;;;;;;9.63;5.03;;;4.10;99.90;;;;;;10368365;28;20535;-78
2023/04/06 22:20:10;;;;;;;7.50;5.00;;;4.10;99.90;;;;;;10393992;28;20279;-79
2023/04/06 22:25:31;;;;;;;9.77;5.33;;;4.00;99.90;;;;;;10394222;28;20249;-80
2023/04/06 22:30:52;;;;;;;8.57;5.10;;;3.90;99.90;;;;;;10393342;28;20242;-79
2023/04/06 22:36:13;;;;;;;9.13;5.10;;;4.00;99.90;;;;;;10408348;28;20231;-78
2023/04/06 22:41:35;;;;;;;9.63;5.63;;;4.10;99.90;;;;;;10353392;28;20488;-78
2023/04/06 22:46:56;;;;;;;9.97;6.30;;;4.10;99.90;;;;;;10368554;28;20240;-79
2023/04/06 22:52:17;;;;;;;12.07;5.87;;;4.10;99.90;;;;;;10393736;28;20200;-79
2023/04/06 22:57:39;;;;;;;9.50;5.60;;;4.10;99.90;;;;;;10408054;28;20225;-85
2023/04/06 23:03:00;;;;;;;9.13;6.00;;;4.00;99.90;;;;;;10389526;28;20226;-85
2023/04/06 23:08:21;;;;;;;9.63;6.03;;;3.80;99.90;;;;;;10395054;28;20195;-84
2023/04/06 23:13:42;;;;;;;11.27;5.67;;;3.80;99.90;;;;;;10412215;28;20418;-77
2023/04/06 23:19:03;;;;;;;10.57;6.03;;;3.80;99.90;;;;;;10409873;28;20227;-80
2023/04/06 23:24:26;;;;;;;7.63;5.23;;;3.90;99.90;;;;;;10360445;28;20215;-80
2023/04/06 23:29:47;;;;;;;11.60;6.33;;;4.00;99.90;;;;;;10375920;28;20206;-79
2023/04/06 23:35:08;;;;;;;9.70;6.50;;;4.00;99.90;;;;;;10389684;28;20246;-82
2023/04/06 23:40:29;;;;;;;13.30;6.37;;;4.00;99.90;;;;;;10376059;28;20208;-80
2023/04/06 23:45:50;;;;;;;8.20;6.10;;;3.90;99.90;;;;;;10360217;28;20437;-78
2023/04/06 23:51:11;;;;;;;9.93;6.50;;;3.90;99.90;;;;;;10402145;28;20398;-79
2023/04/06 23:56:32;;;;;;;14.67;6.90;;;4.00;99.90;;;;;;10372429;28;20266;-81
